Time;durP1;ratioP1;P1;durP2;ratioP2;P2;SDS_P1;SDS_P2;PMS_P1;PMS_P2;Temp;Humidity;BMP_temperature;BMP_pressure;BME280_temperature;BME280_humidity;BME280_pressure;Samples;Min_cycle;Max_cycle;Signal;HPM_P1;HPM_P2
2021/06/06 00:02:12;;;;;;;39.45;28.05;;;17.90;99.90;;;;;;4991830;28;20085;-77
2021/06/06 00:04:43;;;;;;;39.85;29.23;;;17.80;99.90;;;;;;4993993;28;20514;-76
2021/06/06 00:07:11;;;;;;;38.45;28.73;;;17.80;99.90;;;;;;4993029;28;20034;-76
2021/06/06 00:09:37;;;;;;;40.17;29.08;;;17.80;99.90;;;;;;4993220;28;20080;-72
2021/06/06 00:12:03;;;;;;;43.80;31.55;;;17.80;99.90;;;;;;4993078;28;20385;-72
2021/06/06 00:14:33;;;;;;;39.78;29.92;;;17.70;99.90;;;;;;4994981;28;20122;-77
2021/06/06 00:17:03;;;;;;;43.28;30.35;;;17.70;99.90;;;;;;4988550;28;20026;-75
2021/06/06 00:19:28;;;;;;;44.55;32.38;;;17.70;99.90;;;;;;4998509;28;20051;-77
2021/06/06 00:21:55;;;;;;;45.00;31.92;;;17.70;99.90;;;;;;4990204;28;20034;-75
2021/06/06 00:24:22;;;;;;;46.30;31.70;;;17.70;99.90;;;;;;4980483;28;20030;-76
2021/06/06 00:26:50;;;;;;;48.13;33.28;;;17.70;99.90;;;;;;4995806;28;20057;-76
2021/06/06 00:29:16;;;;;;;44.10;31.80;;;17.60;99.90;;;;;;4992519;28;20079;-77
2021/06/06 00:31:44;;;;;;;42.67;31.10;;;17.60;99.90;;;;;;4991834;28;20033;-77
2021/06/06 00:34:09;;;;;;;45.42;31.02;;;17.70;99.90;;;;;;5003285;28;20030;-76
2021/06/06 00:36:35;;;;;;;44.38;32.17;;;17.70;99.90;;;;;;4991012;28;20026;-76
2021/06/06 00:39:01;;;;;;;38.90;29.15;;;17.60;99.90;;;;;;4990748;28;20037;-76
2021/06/06 00:41:29;;;;;;;44.53;32.17;;;17.60;99.90;;;;;;4991894;28;20841;-77
2021/06/06 00:43:55;;;;;;;44.90;32.33;;;17.60;99.90;;;;;;4993813;28;20471;-76
2021/06/06 00:46:22;;;;;;;42.65;30.48;;;17.60;99.90;;;;;;4991848;28;20077;-75
2021/06/06 00:48:48;;;;;;;44.03;31.10;;;17.70;99.90;;;;;;4994139;28;20045;-75
2021/06/06 00:51:19;;;;;;;44.38;32.72;;;17.70;99.90;;;;;;4993278;28;20026;-75
2021/06/06 00:54:16;;;;;;;45.33;32.93;;;17.70;99.90;;;;;;4996104;28;20038;-75
2021/06/06 00:56:44;;;;;;;42.95;30.67;;;17.60;99.90;;;;;;4989380;28;20066;-76
2021/06/06 00:59:12;;;;;;;43.08;33.35;;;17.70;99.90;;;;;;4991685;28;20061;-76
2021/06/06 01:01:40;;;;;;;44.38;33.40;;;17.60;99.90;;;;;;4978825;28;20563;-76
2021/06/06 01:04:08;;;;;;;44.05;33.25;;;17.60;99.90;;;;;;4988873;28;20098;-76
2021/06/06 01:06:42;;;;;;;43.20;33.20;;;17.60;99.90;;;;;;4972619;28;20080;-76
2021/06/06 01:09:08;;;;;;;43.40;30.90;;;17.60;99.90;;;;;;4979493;28;20109;-75
2021/06/06 01:11:57;;;;;;;43.85;32.03;;;17.70;99.90;;;;;;4995201;28;20117;-75
2021/06/06 01:14:31;;;;;;;42.70;30.88;;;17.70;99.90;;;;;;4988051;28;20026;-75
2021/06/06 01:17:22;;;;;;;48.00;35.83;;;17.70;99.90;;;;;;4993310;28;20105;-75
2021/06/06 01:20:08;;;;;;;37.83;28.45;;;17.70;99.90;;;;;;4989987;28;20453;-75
2021/06/06 01:22:52;;;;;;;45.92;34.67;;;17.80;99.90;;;;;;4986407;28;20118;-76
2021/06/06 01:25:25;;;;;;;46.10;33.78;;;17.70;99.90;;;;;;4995587;28;20069;-75
2021/06/06 01:28:04;;;;;;;45.67;33.33;;;17.70;99.90;;;;;;4994635;28;20019;-76
2021/06/06 01:30:32;;;;;;;45.22;34.15;;;17.70;99.90;;;;;;4990582;28;20466;-75
2021/06/06 01:33:02;;;;;;;44.03;32.20;;;17.70;99.90;;;;;;4983465;28;20026;-75
2021/06/06 01:35:47;;;;;;;44.50;33.03;;;17.70;99.90;;;;;;4995602;28;20018;-75
2021/06/06 01:38:48;;;;;;;48.38;35.88;;;17.80;99.90;;;;;;4999588;28;20118;-75
2021/06/06 01:41:15;;;;;;;46.65;34.30;;;17.80;99.90;;;;;;4921140;29;20106;-75
2021/06/06 01:43:45;;;;;;;44.40;33.40;;;17.70;99.90;;;;;;4963307;28;20066;-76
2021/06/06 01:46:14;;;;;;;49.92;36.08;;;17.70;99.90;;;;;;5000390;28;20075;-75
2021/06/06 01:48:45;;;;;;;54.85;37.53;;;17.70;99.90;;;;;;4983461;28;20126;-75
2021/06/06 01:51:15;;;;;;;46.13;34.95;;;17.70;99.90;;;;;;4998855;28;20065;-75
2021/06/06 01:53:44;;;;;;;52.45;37.08;;;17.70;99.90;;;;;;4999005;28;20030;-76
2021/06/06 01:56:15;;;;;;;52.00;37.67;;;17.60;99.90;;;;;;4990462;28;20253;-75
2021/06/06 01:58:40;;;;;;;51.47;38.17;;;17.60;99.90;;;;;;4994188;28;20027;-75
2021/06/06 02:01:09;;;;;;;55.38;38.95;;;17.50;99.90;;;;;;4993561;28;20117;-76
2021/06/06 02:03:35;;;;;;;59.53;41.92;;;17.40;99.90;;;;;;5007573;28;20054;-75
2021/06/06 02:06:01;;;;;;;61.45;41.22;;;17.40;99.90;;;;;;4997407;28;20035;-75
2021/06/06 02:08:28;;;;;;;57.22;40.15;;;17.30;99.90;;;;;;4995591;28;20117;-76
2021/06/06 02:11:04;;;;;;;56.20;41.13;;;17.30;99.90;;;;;;4991883;28;20030;-74
2021/06/06 02:13:43;;;;;;;56.40;39.63;;;17.20;99.90;;;;;;4990350;28;20461;-76
2021/06/06 02:16:10;;;;;;;57.30;39.55;;;17.20;99.90;;;;;;4985905;28;20029;-77
2021/06/06 02:18:35;;;;;;;56.45;40.80;;;17.20;99.90;;;;;;4995374;28;20058;-75
2021/06/06 02:21:04;;;;;;;55.30;39.55;;;17.10;99.90;;;;;;4990630;28;20558;-77
2021/06/06 02:23:32;;;;;;;57.13;41.13;;;17.10;99.90;;;;;;5000991;28;20370;-76
2021/06/06 02:26:07;;;;;;;56.15;40.35;;;17.10;99.90;;;;;;4997197;28;20029;-77
2021/06/06 02:28:46;;;;;;;56.10;40.80;;;17.10;99.90;;;;;;4995837;28;20634;-76
2021/06/06 02:31:29;;;;;;;56.97;39.38;;;17.10;99.90;;;;;;4983647;28;20031;-75
2021/06/06 02:34:01;;;;;;;55.72;40.58;;;17.10;99.90;;;;;;4997242;28;20113;-76
2021/06/06 02:36:27;;;;;;;;;;;17.00;99.90;;;;;;4992820;28;20081;-75
2021/06/06 02:38:59;;;;;;;54.97;37.10;;;16.90;99.90;;;;;;4993126;28;20305;-76
2021/06/06 02:41:27;;;;;;;53.25;38.88;;;16.90;99.90;;;;;;4979489;28;20029;-76
2021/06/06 02:44:03;;;;;;;52.38;38.08;;;16.90;99.90;;;;;;4992507;28;20042;-75
2021/06/06 02:46:29;;;;;;;49.70;36.25;;;16.80;99.90;;;;;;4983700;28;20042;-77
2021/06/06 02:48:57;;;;;;;50.63;37.15;;;16.90;99.90;;;;;;4997237;28;20030;-76
2021/06/06 02:51:25;;;;;;;50.67;36.47;;;16.80;99.90;;;;;;4981484;28;20030;-75
2021/06/06 02:53:58;;;;;;;47.95;35.35;;;16.80;99.90;;;;;;4995341;28;20030;-75
2021/06/06 02:56:25;;;;;;;49.85;36.38;;;16.80;99.90;;;;;;4993523;28;20419;-75
2021/06/06 02:58:54;;;;;;;49.90;36.05;;;16.90;99.90;;;;;;4993065;28;20412;-75
2021/06/06 03:01:24;;;;;;;45.35;34.15;;;16.70;99.90;;;;;;4982688;28;20601;-75
2021/06/06 03:03:52;;;;;;;45.47;32.17;;;16.80;99.90;;;;;;4990681;28;20301;-75
2021/06/06 03:06:23;;;;;;;49.53;34.63;;;16.70;99.90;;;;;;4996126;28;20049;-75
2021/06/06 03:08:48;;;;;;;47.40;34.38;;;16.70;99.90;;;;;;4981193;28;20022;-75
2021/06/06 03:11:14;;;;;;;46.88;34.15;;;16.70;99.90;;;;;;4997521;28;20112;-76
2021/06/06 03:14:07;;;;;;;50.30;34.92;;;16.70;99.90;;;;;;4996420;28;20030;-74
2021/06/06 03:16:37;;;;;;;47.05;33.75;;;16.70;99.90;;;;;;4993713;28;20038;-74
2021/06/06 03:19:05;;;;;;;47.70;33.47;;;16.60;99.90;;;;;;4998922;28;20040;-75
2021/06/06 03:21:34;;;;;;;47.10;32.88;;;16.70;99.90;;;;;;4994526;28;20621;-75
2021/06/06 03:24:09;;;;;;;46.40;34.08;;;16.60;99.90;;;;;;4994282;28;20097;-75
2021/06/06 03:26:35;;;;;;;47.28;34.80;;;16.60;99.90;;;;;;5008030;28;20418;-76
2021/06/06 03:29:05;;;;;;;46.85;34.08;;;16.60;99.90;;;;;;4970167;28;20027;-76
2021/06/06 03:31:42;;;;;;;47.30;34.35;;;16.50;99.90;;;;;;4995587;28;20387;-74
2021/06/06 03:34:10;;;;;;;46.42;33.72;;;16.50;99.90;;;;;;4993382;28;20068;-74
2021/06/06 03:36:45;;;;;;;46.45;33.50;;;16.50;99.90;;;;;;4997401;28;20054;-75
2021/06/06 03:39:26;;;;;;;42.83;31.70;;;16.50;99.90;;;;;;4992963;28;20029;-75
2021/06/06 03:41:52;;;;;;;43.95;33.13;;;16.40;99.90;;;;;;4997590;28;20037;-75
2021/06/06 03:44:20;;;;;;;46.47;32.50;;;16.40;99.90;;;;;;5000365;28;20026;-75
2021/06/06 03:46:48;;;;;;;45.63;32.45;;;16.40;99.90;;;;;;4997785;28;20045;-74
2021/06/06 03:49:16;;;;;;;40.72;30.40;;;16.50;99.90;;;;;;4990125;28;20133;-73
2021/06/06 03:51:42;;;;;;;40.90;30.75;;;16.40;99.90;;;;;;4990383;28;20026;-74
2021/06/06 03:54:10;;;;;;;40.80;30.17;;;16.40;99.90;;;;;;4978758;28;20027;-75
2021/06/06 03:56:40;;;;;;;37.72;28.67;;;16.40;99.90;;;;;;4991807;28;20459;-74
2021/06/06 03:59:08;;;;;;;36.35;27.40;;;16.40;99.90;;;;;;5001292;28;20117;-74
2021/06/06 04:01:33;;;;;;;34.90;26.23;;;16.40;99.90;;;;;;4992947;28;20637;-75
2021/06/06 04:03:59;;;;;;;32.15;24.55;;;16.30;99.90;;;;;;5007131;28;20035;-74
2021/06/06 04:06:25;;;;;;;32.13;24.95;;;16.40;99.90;;;;;;4990221;28;20071;-73
2021/06/06 04:08:51;;;;;;;33.05;24.55;;;16.40;99.90;;;;;;4994651;28;20025;-74
2021/06/06 04:11:17;;;;;;;30.63;22.40;;;16.40;99.90;;;;;;4995796;28;20424;-74
2021/06/06 04:13:44;;;;;;;26.33;20.58;;;16.40;99.90;;;;;;4996351;28;20036;-74
2021/06/06 04:16:12;;;;;;;26.52;21.30;;;16.40;99.90;;;;;;4995629;28;20635;-75
2021/06/06 04:18:38;;;;;;;24.20;18.90;;;16.40;99.90;;;;;;4992460;28;20464;-74
2021/06/06 04:21:10;;;;;;;25.30;19.80;;;16.50;99.90;;;;;;4988985;28;20034;-76
2021/06/06 04:23:39;;;;;;;26.58;19.13;;;16.50;99.90;;;;;;4991523;28;20029;-75
2021/06/06 04:26:04;;;;;;;24.27;18.50;;;16.40;99.90;;;;;;4990983;28;20030;-74
2021/06/06 04:28:30;;;;;;;22.75;17.42;;;16.50;99.90;;;;;;4998304;28;20079;-74
2021/06/06 04:30:58;;;;;;;22.23;16.83;;;16.50;99.90;;;;;;4993317;28;20042;-75
2021/06/06 04:33:26;;;;;;;23.58;17.50;;;16.50;99.90;;;;;;4989638;28;20033;-74
2021/06/06 04:35:57;;;;;;;22.77;17.33;;;16.40;99.90;;;;;;4991774;28;20019;-75
2021/06/06 04:38:24;;;;;;;20.50;15.45;;;16.40;99.90;;;;;;4989550;28;20037;-74
2021/06/06 04:40:53;;;;;;;19.88;15.00;;;16.40;99.90;;;;;;4995514;28;20023;-75
2021/06/06 04:43:19;;;;;;;19.48;15.82;;;16.40;99.90;;;;;;4996585;28;20030;-75
2021/06/06 04:45:45;;;;;;;18.95;15.20;;;16.40;99.90;;;;;;4983012;28;20052;-74
2021/06/06 04:48:12;;;;;;;20.23;14.65;;;16.40;99.90;;;;;;4991916;28;21481;-73
2021/06/06 04:50:40;;;;;;;18.63;15.27;;;16.40;99.90;;;;;;4989840;28;20108;-74
2021/06/06 04:53:06;;;;;;;20.17;14.55;;;16.40;99.90;;;;;;4996794;28;20138;-75
2021/06/06 04:55:32;;;;;;;18.15;14.30;;;16.40;99.90;;;;;;5003885;28;20077;-74
2021/06/06 04:57:57;;;;;;;17.33;14.30;;;16.40;99.90;;;;;;4992413;28;20023;-75
2021/06/06 05:00:24;;;;;;;17.88;14.43;;;16.30;99.90;;;;;;4994854;28;20583;-74
2021/06/06 05:02:51;;;;;;;17.30;14.10;;;16.30;99.90;;;;;;4994932;28;20071;-73
2021/06/06 05:05:19;;;;;;;18.20;14.10;;;16.30;99.90;;;;;;4991836;28;20041;-76
2021/06/06 05:07:53;;;;;;;18.38;14.57;;;16.30;99.90;;;;;;4990163;28;20100;-74
2021/06/06 05:10:19;;;;;;;17.95;13.20;;;16.20;99.90;;;;;;4994862;28;20035;-73
2021/06/06 05:12:47;;;;;;;19.20;15.25;;;16.20;99.90;;;;;;4990308;28;20034;-74
2021/06/06 05:15:15;;;;;;;18.73;14.70;;;16.30;99.90;;;;;;4994083;28;20091;-74
2021/06/06 05:17:41;;;;;;;19.75;15.43;;;16.20;99.90;;;;;;4987027;28;20058;-75
2021/06/06 05:20:09;;;;;;;19.02;15.65;;;16.20;99.90;;;;;;4983565;28;20133;-74
2021/06/06 05:22:37;;;;;;;20.35;15.02;;;16.20;99.90;;;;;;4990907;28;20025;-75
2021/06/06 05:25:05;;;;;;;17.92;14.73;;;16.20;99.90;;;;;;4993354;28;20029;-74
2021/06/06 05:27:31;;;;;;;20.52;15.88;;;16.20;99.90;;;;;;4995528;28;20120;-73
2021/06/06 05:29:56;;;;;;;20.35;15.43;;;16.20;99.90;;;;;;4995555;28;20069;-75
2021/06/06 05:32:22;;;;;;;20.70;14.70;;;16.20;99.90;;;;;;4996039;28;20053;-73
2021/06/06 05:34:47;;;;;;;20.67;16.92;;;16.20;99.90;;;;;;4996950;28;20029;-74
2021/06/06 05:37:13;;;;;;;19.08;15.13;;;16.20;99.90;;;;;;4988960;28;20030;-74
2021/06/06 05:39:40;;;;;;;19.65;14.82;;;16.20;99.90;;;;;;4992814;28;20081;-75
2021/06/06 05:42:09;;;;;;;20.30;16.00;;;16.30;99.90;;;;;;4997032;28;20355;-74
2021/06/06 05:44:37;;;;;;;22.30;17.50;;;16.30;99.90;;;;;;5002409;28;20500;-75
2021/06/06 05:47:03;;;;;;;24.48;17.75;;;16.30;99.90;;;;;;4993914;28;20048;-74
2021/06/06 05:49:31;;;;;;;23.50;17.48;;;16.30;99.90;;;;;;4993552;28;20042;-74
2021/06/06 05:51:57;;;;;;;23.05;17.13;;;16.20;99.90;;;;;;4992847;28;21508;-75
2021/06/06 05:54:25;;;;;;;22.17;16.42;;;16.30;99.90;;;;;;4991287;28;20503;-74
2021/06/06 05:56:50;;;;;;;20.13;16.65;;;16.30;99.90;;;;;;4991259;28;20034;-74
2021/06/06 05:59:16;;;;;;;20.33;16.65;;;16.30;99.90;;;;;;4990008;28;20014;-74
2021/06/06 06:01:41;;;;;;;21.30;16.67;;;16.30;99.90;;;;;;4993710;28;20018;-74
2021/06/06 06:04:07;;;;;;;20.40;16.23;;;16.30;99.90;;;;;;4990833;28;20105;-75
2021/06/06 06:06:33;;;;;;;20.85;16.42;;;16.40;99.90;;;;;;4993997;28;20483;-73
2021/06/06 06:08:58;;;;;;;23.90;17.77;;;16.50;99.90;;;;;;4991750;28;20459;-74
2021/06/06 06:11:24;;;;;;;21.92;17.23;;;16.50;99.90;;;;;;4976827;28;20115;-74
2021/06/06 06:13:55;;;;;;;21.85;16.65;;;16.40;99.90;;;;;;4991524;28;20030;-73
2021/06/06 06:16:21;;;;;;;21.05;16.08;;;16.50;99.90;;;;;;4977536;28;20018;-74
2021/06/06 06:18:50;;;;;;;20.40;15.57;;;16.50;99.90;;;;;;4992788;28;20049;-74
2021/06/06 06:21:16;;;;;;;21.13;16.52;;;16.60;99.90;;;;;;4984041;28;20407;-75
2021/06/06 06:23:44;;;;;;;21.08;16.00;;;16.60;99.90;;;;;;4999252;28;20090;-74
2021/06/06 06:26:12;;;;;;;21.48;15.85;;;16.50;99.90;;;;;;4996024;28;20084;-75
2021/06/06 06:28:45;;;;;;;23.70;17.58;;;16.60;99.90;;;;;;5005926;28;20030;-74
2021/06/06 06:31:11;;;;;;;22.58;15.95;;;16.60;99.90;;;;;;4994472;28;20057;-73
2021/06/06 06:33:42;;;;;;;24.15;16.85;;;16.60;99.90;;;;;;4993482;28;20463;-75
2021/06/06 06:36:09;;;;;;;22.63;16.52;;;16.60;99.90;;;;;;4994339;28;20027;-74
2021/06/06 06:38:37;;;;;;;21.77;15.77;;;16.60;99.90;;;;;;4993509;28;20037;-74
2021/06/06 06:41:05;;;;;;;19.83;15.30;;;16.60;99.90;;;;;;4993725;28;20052;-74
2021/06/06 06:43:31;;;;;;;18.90;14.60;;;16.60;99.90;;;;;;4998151;28;20544;-74
2021/06/06 06:45:56;;;;;;;20.50;14.88;;;16.50;99.90;;;;;;4996262;28;20110;-74
2021/06/06 06:48:27;;;;;;;18.45;13.98;;;16.50;99.90;;;;;;4992138;28;20061;-74
2021/06/06 06:50:53;;;;;;;17.27;13.68;;;16.60;99.90;;;;;;4983856;28;20068;-74
2021/06/06 06:53:19;;;;;;;17.20;13.10;;;16.60;99.90;;;;;;4991430;28;20062;-75
2021/06/06 06:55:45;;;;;;;18.20;13.00;;;16.60;99.90;;;;;;4971291;28;20053;-74
2021/06/06 06:58:10;;;;;;;17.58;13.10;;;16.60;99.90;;;;;;4989691;28;20457;-75
2021/06/06 07:00:41;;;;;;;16.42;12.73;;;16.60;99.90;;;;;;4996859;28;20113;-76
2021/06/06 07:03:10;;;;;;;15.75;11.60;;;16.50;99.90;;;;;;4980186;28;20141;-75
2021/06/06 07:05:36;;;;;;;16.65;11.40;;;16.60;99.90;;;;;;4992952;28;20032;-74
2021/06/06 07:08:04;;;;;;;15.13;11.55;;;16.60;99.90;;;;;;4992515;28;20117;-74
2021/06/06 07:10:33;;;;;;;13.52;10.82;;;16.50;99.90;;;;;;5007741;28;20026;-74
2021/06/06 07:12:59;;;;;;;12.23;9.73;;;16.50;99.90;;;;;;4996334;28;20061;-74
2021/06/06 07:15:25;;;;;;;11.35;9.00;;;16.50;99.90;;;;;;4991692;28;20057;-75
2021/06/06 07:17:51;;;;;;;12.32;9.10;;;16.60;99.90;;;;;;5010190;28;20025;-74
2021/06/06 07:20:27;;;;;;;11.23;8.70;;;16.60;99.90;;;;;;4993828;28;20547;-73
2021/06/06 07:22:55;;;;;;;11.45;8.57;;;16.70;99.90;;;;;;4996766;28;20042;-76
2021/06/06 07:25:21;;;;;;;11.63;8.93;;;16.60;99.90;;;;;;4996992;28;20038;-75
2021/06/06 07:27:47;;;;;;;11.93;8.45;;;16.70;99.90;;;;;;4989500;28;20084;-74
2021/06/06 07:30:25;;;;;;;10.85;8.55;;;16.70;99.90;;;;;;4991526;28;20087;-75
2021/06/06 07:32:50;;;;;;;11.30;8.45;;;16.70;99.90;;;;;;4979776;28;20456;-74
2021/06/06 07:35:17;;;;;;;9.88;7.70;;;16.70;99.90;;;;;;4985434;28;20084;-76
2021/06/06 07:37:45;;;;;;;11.07;7.85;;;16.60;99.90;;;;;;4991443;28;20045;-74
2021/06/06 07:40:11;;;;;;;9.68;7.47;;;16.70;99.90;;;;;;4989150;28;20045;-74
2021/06/06 07:42:37;;;;;;;9.80;7.50;;;16.70;99.90;;;;;;5007249;28;20093;-76
2021/06/06 07:45:09;;;;;;;9.43;6.85;;;16.70;99.90;;;;;;4990903;28;20113;-73
2021/06/06 07:47:40;;;;;;;9.43;7.07;;;16.70;99.90;;;;;;5007438;28;20058;-75
2021/06/06 07:50:06;;;;;;;9.70;6.95;;;16.70;99.90;;;;;;4975556;28;20384;-75
2021/06/06 07:52:35;;;;;;;10.18;6.47;;;16.70;99.90;;;;;;4985793;28;20030;-75
2021/06/06 07:55:04;;;;;;;9.75;6.85;;;16.80;99.90;;;;;;4976343;28;20046;-75
2021/06/06 07:57:30;;;;;;;8.73;6.40;;;16.80;99.90;;;;;;4991117;28;20584;-75
2021/06/06 07:59:56;;;;;;;8.40;6.28;;;16.80;99.90;;;;;;4976669;28;20026;-75
2021/06/06 08:02:21;;;;;;;9.98;6.22;;;16.90;99.90;;;;;;4976360;28;20084;-75
2021/06/06 08:04:47;;;;;;;8.50;6.03;;;16.90;99.90;;;;;;4976621;28;20038;-74
2021/06/06 08:07:17;;;;;;;7.57;5.70;;;17.10;99.90;;;;;;4976660;28;20042;-75
2021/06/06 08:09:43;;;;;;;7.60;5.63;;;17.10;99.90;;;;;;4980848;28;20121;-76
2021/06/06 08:12:11;;;;;;;8.30;5.57;;;17.10;99.90;;;;;;4993808;28;21889;-74
2021/06/06 08:14:39;;;;;;;7.75;5.18;;;17.20;99.90;;;;;;4982993;28;20039;-74
2021/06/06 08:17:05;;;;;;;8.38;5.68;;;17.30;99.90;;;;;;4975516;28;20037;-76
2021/06/06 08:19:33;;;;;;;7.40;5.20;;;17.30;99.90;;;;;;4988466;28;20022;-75
2021/06/06 08:21:58;;;;;;;7.50;5.35;;;17.40;99.90;;;;;;4994985;28;20030;-75
2021/06/06 08:24:26;;;;;;;7.63;5.43;;;17.40;99.90;;;;;;4975493;28;20727;-77
2021/06/06 08:26:52;;;;;;;7.43;5.00;;;17.50;99.90;;;;;;4985733;28;20042;-77
2021/06/06 08:29:17;;;;;;;7.88;5.50;;;17.50;99.90;;;;;;4974754;28;20034;-69
2021/06/06 08:31:44;;;;;;;7.57;5.35;;;17.40;99.90;;;;;;4981484;28;20023;-69
2021/06/06 08:34:10;;;;;;;7.50;5.15;;;17.40;99.90;;;;;;4987174;28;20550;-76
2021/06/06 08:36:41;;;;;;;8.55;5.75;;;17.40;99.90;;;;;;4981250;28;20042;-75
2021/06/06 08:39:30;;;;;;;6.80;5.30;;;17.60;99.90;;;;;;4976632;28;20025;-76
2021/06/06 08:42:14;;;;;;;6.60;4.35;;;17.70;99.90;;;;;;4985676;28;20365;-76
2021/06/06 08:44:59;;;;;;;7.28;5.05;;;17.80;99.90;;;;;;4984710;28;20488;-74
2021/06/06 08:47:28;;;;;;;7.30;5.32;;;17.80;99.90;;;;;;4998677;28;20053;-69
2021/06/06 08:49:57;;;;;;;10.07;7.55;;;17.80;99.90;;;;;;4994254;28;20026;-69
2021/06/06 08:52:48;;;;;;;9.20;5.90;;;17.90;99.90;;;;;;4991369;28;20038;-70
2021/06/06 08:55:45;;;;;;;7.53;5.47;;;18.00;99.90;;;;;;4992966;28;20386;-74
2021/06/06 08:58:35;;;;;;;7.47;5.53;;;18.00;99.90;;;;;;4992710;28;20026;-74
2021/06/06 09:01:21;;;;;;;8.05;5.80;;;18.00;99.90;;;;;;4980934;28;20029;-74
2021/06/06 09:03:53;;;;;;;8.48;5.88;;;18.10;99.90;;;;;;5004653;28;20371;-75
2021/06/06 09:06:30;;;;;;;9.20;6.70;;;18.10;99.90;;;;;;4988972;28;20141;-76
2021/06/06 09:08:58;;;;;;;9.45;6.68;;;17.80;99.90;;;;;;4982629;28;20026;-75
2021/06/06 09:11:26;;;;;;;8.15;5.85;;;17.80;99.90;;;;;;5003714;28;20034;-74
2021/06/06 09:13:53;;;;;;;9.02;6.32;;;17.90;99.90;;;;;;4980936;28;20121;-75
2021/06/06 09:16:25;;;;;;;9.65;6.85;;;18.00;99.90;;;;;;4992397;28;20819;-74
2021/06/06 09:19:00;;;;;;;10.02;7.70;;;18.10;99.90;;;;;;5005456;28;20030;-75
2021/06/06 09:21:29;;;;;;;9.27;7.18;;;18.00;99.90;;;;;;4987354;28;20506;-75
2021/06/06 09:24:07;;;;;;;9.90;7.30;;;18.10;99.90;;;;;;4991804;28;20528;-74
2021/06/06 09:26:33;;;;;;;10.43;7.53;;;18.20;99.90;;;;;;4991233;28;20141;-76
2021/06/06 09:29:21;;;;;;;9.07;7.13;;;18.30;99.90;;;;;;4986501;28;20161;-75
2021/06/06 09:31:47;;;;;;;9.82;7.20;;;18.40;99.90;;;;;;4989775;28;20077;-76
2021/06/06 09:34:23;;;;;;;9.80;7.07;;;18.50;99.90;;;;;;4987553;28;20039;-75
2021/06/06 09:37:02;;;;;;;12.18;9.95;;;18.50;99.90;;;;;;4632237;28;9999847;-69
2021/06/06 09:39:34;;;;;;;10.15;8.02;;;18.60;99.90;;;;;;4987559;28;20058;-69
2021/06/06 09:42:15;;;;;;;8.73;6.32;;;18.70;99.90;;;;;;4988986;28;20030;-76
2021/06/06 09:44:41;;;;;;;9.30;7.00;;;18.70;99.90;;;;;;4988966;28;20049;-74
2021/06/06 09:47:08;;;;;;;9.35;7.35;;;18.80;99.90;;;;;;4987377;28;20026;-74
2021/06/06 09:49:45;;;;;;;8.88;6.70;;;18.90;99.90;;;;;;4987026;28;20031;-75
2021/06/06 09:52:18;;;;;;;8.70;6.45;;;19.00;99.90;;;;;;4979053;28;20034;-75
2021/06/06 09:54:48;;;;;;;8.18;6.30;;;19.20;99.90;;;;;;4981328;28;20069;-74
2021/06/06 09:57:19;;;;;;;8.02;5.80;;;19.30;99.90;;;;;;4985798;28;20026;-74
2021/06/06 09:59:45;;;;;;;8.35;5.68;;;19.40;99.90;;;;;;4977155;28;20023;-75
2021/06/06 10:02:34;;;;;;;7.50;5.65;;;19.40;99.90;;;;;;4995028;28;20031;-74
2021/06/06 10:05:08;;;;;;;7.32;5.10;;;19.50;99.90;;;;;;4984623;28;20046;-74
2021/06/06 10:07:39;;;;;;;7.32;5.53;;;19.60;99.90;;;;;;4986446;28;20163;-75
2021/06/06 10:10:19;;;;;;;7.10;5.30;;;19.70;99.90;;;;;;4995406;28;20045;-76
2021/06/06 10:12:46;;;;;;;8.95;6.05;;;19.70;99.90;;;;;;4992733;28;20369;-74
2021/06/06 10:15:25;;;;;;;7.07;5.18;;;19.70;99.90;;;;;;4984798;28;20026;-78
2021/06/06 10:17:53;;;;;;;6.47;4.82;;;19.80;99.90;;;;;;4984271;28;20034;-72
2021/06/06 10:20:32;;;;;;;9.27;7.07;;;19.90;99.90;;;;;;4650754;28;10000142;-70
2021/06/06 10:23:05;;;;;;;8.30;6.90;;;20.00;99.90;;;;;;4983127;28;20464;-75
2021/06/06 10:25:56;;;;;;;7.53;6.07;;;20.10;99.90;;;;;;4982376;28;20056;-76
2021/06/06 10:28:37;;;;;;;9.02;6.53;;;20.30;99.90;;;;;;4987840;28;20451;-75
2021/06/06 10:31:02;;;;;;;8.20;6.43;;;20.40;99.90;;;;;;4995492;28;20030;-75
2021/06/06 10:34:04;;;;;;;8.00;6.57;;;20.50;99.90;;;;;;4989699;28;20045;-76
2021/06/06 10:36:34;;;;;;;8.50;6.82;;;20.70;99.90;;;;;;4972813;28;20043;-76
2021/06/06 10:38:59;;;;;;;9.10;7.00;;;20.70;99.90;;;;;;4987669;28;20392;-75
2021/06/06 10:41:37;;;;;;;8.50;6.93;;;20.70;99.90;;;;;;4981247;28;20242;-76
2021/06/06 10:44:20;;;;;;;9.10;7.20;;;20.70;99.90;;;;;;4997714;28;20073;-75
2021/06/06 10:46:59;;;;;;;8.80;6.82;;;20.70;99.90;;;;;;4981872;28;20038;-76
2021/06/06 10:49:32;;;;;;;8.68;6.60;;;20.80;99.90;;;;;;5008321;28;20045;-75
2021/06/06 10:52:19;;;;;;;8.95;7.05;;;20.80;99.90;;;;;;4981730;28;20054;-76
2021/06/06 10:54:51;;;;;;;9.35;7.40;;;20.90;99.90;;;;;;4992021;28;20152;-76
2021/06/06 10:57:25;;;;;;;8.20;6.65;;;21.10;99.90;;;;;;4972665;28;20455;-76
2021/06/06 11:00:02;;;;;;;9.48;7.45;;;21.20;99.90;;;;;;4992341;28;20054;-76
2021/06/06 11:02:37;;;;;;;9.20;7.40;;;21.10;99.90;;;;;;4998031;28;20139;-76
2021/06/06 11:05:06;;;;;;;9.88;7.80;;;21.30;99.90;;;;;;4992828;28;20022;-76
2021/06/06 11:07:45;;;;;;;10.00;8.05;;;21.40;99.90;;;;;;5009901;28;20061;-76
2021/06/06 11:10:19;;;;;;;9.13;7.45;;;21.40;99.90;;;;;;4995930;28;20023;-71
2021/06/06 11:12:51;;;;;;;10.60;8.77;;;21.40;99.90;;;;;;4990673;28;20033;-71
2021/06/06 11:15:34;;;;;;;8.65;7.55;;;21.50;99.90;;;;;;4991092;28;20061;-76
2021/06/06 11:18:20;;;;;;;9.80;7.93;;;21.60;99.90;;;;;;4991334;28;20484;-75
2021/06/06 11:20:56;;;;;;;8.60;7.22;;;21.60;99.90;;;;;;4992700;28;20033;-76
2021/06/06 11:23:34;;;;;;;9.68;7.43;;;21.60;99.90;;;;;;4990150;28;20117;-77
2021/06/06 11:26:00;;;;;;;9.52;8.35;;;21.50;99.90;;;;;;4982214;28;20030;-77
2021/06/06 11:28:40;;;;;;;9.98;8.35;;;21.30;99.90;;;;;;4968281;28;20041;-77
2021/06/06 11:31:21;;;;;;;11.50;8.32;;;21.30;99.90;;;;;;4996313;28;20031;-78
2021/06/06 11:34:06;;;;;;;10.27;8.43;;;21.30;99.90;;;;;;4992714;28;20476;-76
2021/06/06 11:36:38;;;;;;;9.02;7.57;;;21.40;99.90;;;;;;4994398;28;20117;-76
2021/06/06 11:39:17;;;;;;;8.70;7.80;;;21.40;99.90;;;;;;4993515;28;20022;-77
2021/06/06 11:41:44;;;;;;;9.63;7.75;;;21.50;98.90;;;;;;4990627;28;20029;-76
2021/06/06 11:44:22;;;;;;;9.60;8.05;;;21.60;99.90;;;;;;4998292;28;20042;-75
2021/06/06 11:47:08;;;;;;;10.52;8.10;;;21.80;99.90;;;;;;4974334;28;20379;-76
2021/06/06 11:50:10;;;;;;;10.02;7.82;;;22.00;98.60;;;;;;4995844;28;20080;-75
2021/06/06 11:52:41;;;;;;;11.50;8.98;;;21.90;98.10;;;;;;4979831;28;20034;-75
2021/06/06 11:55:09;;;;;;;;;;;21.90;99.90;;;;;;4990967;28;20037;-75
2021/06/06 11:57:41;;;;;;;11.55;8.90;;;21.80;98.10;;;;;;4996986;28;19909;-75
2021/06/06 12:00:31;;;;;;;11.48;8.90;;;21.90;98.90;;;;;;4997289;28;20042;-75
2021/06/06 12:03:25;;;;;;;10.82;8.65;;;22.10;98.70;;;;;;4997361;28;20044;-75
2021/06/06 12:05:56;;;;;;;9.85;8.18;;;22.10;95.80;;;;;;4992612;28;20026;-74
2021/06/06 12:08:38;;;;;;;9.20;8.03;;;22.20;98.00;;;;;;4991284;28;20087;-75
2021/06/06 12:11:08;;;;;;;;;;;22.20;98.10;;;;;;4995692;28;20692;-74
2021/06/06 12:13:39;;;;;;;10.75;8.70;;;22.00;95.30;;;;;;4989243;28;19913;-75
2021/06/06 12:16:13;;;;;;;12.13;9.68;;;22.20;99.90;;;;;;4980804;28;20481;-74
2021/06/06 12:18:40;;;;;;;10.77;8.43;;;22.20;99.00;;;;;;4990554;28;20053;-75
2021/06/06 12:21:21;;;;;;;9.93;8.35;;;22.40;99.90;;;;;;4996549;28;20034;-76
2021/06/06 12:23:48;;;;;;;9.70;8.13;;;22.60;99.90;;;;;;4997671;28;20031;-75
2021/06/06 12:26:17;;;;;;;11.43;9.25;;;22.80;98.70;;;;;;4995400;28;20030;-75
2021/06/06 12:28:45;;;;;;;9.60;8.35;;;22.70;93.70;;;;;;4992407;28;20036;-75
2021/06/06 12:31:33;;;;;;;11.32;8.98;;;22.70;94.40;;;;;;4993791;28;20477;-74
2021/06/06 12:34:26;;;;;;;11.00;8.90;;;22.70;96.30;;;;;;4994126;28;20103;-74
2021/06/06 12:36:58;;;;;;;11.43;8.65;;;22.80;93.50;;;;;;4990717;28;20489;-75
2021/06/06 12:39:26;;;;;;;9.77;8.10;;;22.70;93.20;;;;;;4996906;28;20030;-75
2021/06/06 12:41:53;;;;;;;10.10;8.30;;;22.60;93.60;;;;;;5004509;28;20057;-75
2021/06/06 12:44:21;;;;;;;11.57;9.63;;;22.50;94.60;;;;;;4979236;28;20034;-76
2021/06/06 12:47:03;;;;;;;11.07;9.40;;;22.40;92.20;;;;;;4972055;28;20022;-71
2021/06/06 12:49:58;;;;;;;10.35;8.93;;;22.40;96.70;;;;;;4996049;28;20124;-70
2021/06/06 12:52:36;;;;;;;12.38;9.48;;;22.40;96.70;;;;;;4988300;28;20763;-75
2021/06/06 12:55:26;;;;;;;10.15;8.57;;;22.20;95.00;;;;;;4989671;28;20053;-75
2021/06/06 12:57:59;;;;;;;11.00;8.95;;;22.20;98.00;;;;;;4995157;28;20034;-74